sensor_id;sensor_type;location;lat;lon;timestamp;pressure;altitude;pressure_sealevel;temperature
37452;BMP280;23314;51.114;6.900;2022-12-24T00:02:13;100413.25;;;13.08
37452;BMP280;23314;51.114;6.900;2022-12-24T00:04:38;100420.09;;;13.09
37452;BMP280;23314;51.114;6.900;2022-12-24T00:07:04;100416.34;;;13.06
37452;BMP280;23314;51.114;6.900;2022-12-24T00:09:29;100420.63;;;13.03
37452;BMP280;23314;51.114;6.900;2022-12-24T00:11:54;100432.63;;;12.99
37452;BMP280;23314;51.114;6.900;2022-12-24T00:14:20;100434.66;;;12.95
37452;BMP280;23314;51.114;6.900;2022-12-24T00:16:45;100435.50;;;12.92
37452;BMP280;23314;51.114;6.900;2022-12-24T00:19:11;100443.53;;;12.92
37452;BMP280;23314;51.114;6.900;2022-12-24T00:21:37;100444.47;;;12.85
37452;BMP280;23314;51.114;6.900;2022-12-24T00:24:02;100453.47;;;12.78
37452;BMP280;23314;51.114;6.900;2022-12-24T00:26:30;100446.13;;;12.66
37452;BMP280;23314;51.114;6.900;2022-12-24T00:28:55;100450.19;;;12.58
37452;BMP280;23314;51.114;6.900;2022-12-24T00:31:20;100442.19;;;12.41
37452;BMP280;23314;51.114;6.900;2022-12-24T00:33:46;100448.91;;;12.33
37452;BMP280;23314;51.114;6.900;2022-12-24T00:36:11;100448.34;;;12.25
37452;BMP280;23314;51.114;6.900;2022-12-24T00:38:37;100443.28;;;12.27
37452;BMP280;23314;51.114;6.900;2022-12-24T00:41:05;100446.84;;;12.24
37452;BMP280;23314;51.114;6.900;2022-12-24T00:43:49;100441.50;;;12.24
37452;BMP280;23314;51.114;6.900;2022-12-24T00:46:14;100446.72;;;12.28
37452;BMP280;23314;51.114;6.900;2022-12-24T00:48:40;100449.66;;;12.33
37452;BMP280;23314;51.114;6.900;2022-12-24T00:51:05;100460.59;;;12.39
37452;BMP280;23314;51.114;6.900;2022-12-24T00:53:30;100468.09;;;12.44
37452;BMP280;23314;51.114;6.900;2022-12-24T00:55:55;100470.72;;;12.48
37452;BMP280;23314;51.114;6.900;2022-12-24T00:58:21;100478.19;;;12.53
37452;BMP280;23314;51.114;6.900;2022-12-24T01:00:46;100482.38;;;12.54
37452;BMP280;23314;51.114;6.900;2022-12-24T01:03:11;100476.28;;;12.53
37452;BMP280;23314;51.114;6.900;2022-12-24T01:05:37;100464.91;;;12.49
37452;BMP280;23314;51.114;6.900;2022-12-24T01:08:02;100479.06;;;12.50
37452;BMP280;23314;51.114;6.900;2022-12-24T01:10:27;100475.53;;;12.53
37452;BMP280;23314;51.114;6.900;2022-12-24T01:12:53;100477.03;;;12.54
37452;BMP280;23314;51.114;6.900;2022-12-24T01:15:18;100490.72;;;12.56
37452;BMP280;23314;51.114;6.900;2022-12-24T01:17:43;100490.31;;;12.58
37452;BMP280;23314;51.114;6.900;2022-12-24T01:20:13;100495.66;;;12.58
37452;BMP280;23314;51.114;6.900;2022-12-24T01:22:39;100505.94;;;12.59
37452;BMP280;23314;51.114;6.900;2022-12-24T01:25:05;100523.94;;;12.59
37452;BMP280;23314;51.114;6.900;2022-12-24T01:27:30;100511.72;;;12.58
37452;BMP280;23314;51.114;6.900;2022-12-24T01:29:57;100519.09;;;12.53
37452;BMP280;23314;51.114;6.900;2022-12-24T01:32:22;100516.91;;;12.48
37452;BMP280;23314;51.114;6.900;2022-12-24T01:34:47;100517.41;;;12.43
37452;BMP280;23314;51.114;6.900;2022-12-24T01:37:13;100523.19;;;12.42
37452;BMP280;23314;51.114;6.900;2022-12-24T01:39:38;100510.16;;;12.44
37452;BMP280;23314;51.114;6.900;2022-12-24T01:42:24;100518.59;;;12.42
37452;BMP280;23314;51.114;6.900;2022-12-24T01:46:22;100523.47;;;12.31
37452;BMP280;23314;51.114;6.900;2022-12-24T01:48:41;100525.72;;;12.16
37452;BMP280;23314;51.114;6.900;2022-12-24T01:53:35;100537.66;;;11.95
37452;BMP280;23314;51.114;6.900;2022-12-24T01:56:02;100530.63;;;11.84
37452;BMP280;23314;51.114;6.900;2022-12-24T01:58:29;100523.91;;;11.76
37452;BMP280;23314;51.114;6.900;2022-12-24T02:00:54;100522.53;;;11.68
37452;BMP280;23314;51.114;6.900;2022-12-24T02:03:20;100524.28;;;11.58
37452;BMP280;23314;51.114;6.900;2022-12-24T02:05:51;100532.13;;;11.49
37452;BMP280;23314;51.114;6.900;2022-12-24T02:08:17;100544.00;;;11.44
37452;BMP280;23314;51.114;6.900;2022-12-24T02:10:44;100539.56;;;11.37
37452;BMP280;23314;51.114;6.900;2022-12-24T02:13:10;100536.59;;;11.35
37452;BMP280;23314;51.114;6.900;2022-12-24T02:15:49;100544.25;;;11.33
37452;BMP280;23314;51.114;6.900;2022-12-24T02:18:26;100556.91;;;11.29
37452;BMP280;23314;51.114;6.900;2022-12-24T02:24:14;100552.88;;;11.21
37452;BMP280;23314;51.114;6.900;2022-12-24T02:27:07;100554.13;;;11.16
37452;BMP280;23314;51.114;6.900;2022-12-24T02:30:04;100568.63;;;11.15
37452;BMP280;23314;51.114;6.900;2022-12-24T02:32:42;100572.84;;;11.13
37452;BMP280;23314;51.114;6.900;2022-12-24T02:37:49;100573.59;;;11.13
37452;BMP280;23314;51.114;6.900;2022-12-24T02:40:21;100576.97;;;11.17
37452;BMP280;23314;51.114;6.900;2022-12-24T02:42:52;100574.63;;;11.19
37452;BMP280;23314;51.114;6.900;2022-12-24T02:45:25;100583.06;;;11.18
37452;BMP280;23314;51.114;6.900;2022-12-24T02:47:51;100583.81;;;11.18
37452;BMP280;23314;51.114;6.900;2022-12-24T02:50:19;100595.56;;;11.21
37452;BMP280;23314;51.114;6.900;2022-12-24T02:52:45;100590.94;;;11.25
37452;BMP280;23314;51.114;6.900;2022-12-24T02:55:24;100594.31;;;11.29
37452;BMP280;23314;51.114;6.900;2022-12-24T03:00:24;100601.56;;;11.49
37452;BMP280;23314;51.114;6.900;2022-12-24T03:08:25;100607.53;;;11.77
37452;BMP280;23314;51.114;6.900;2022-12-24T03:11:06;100596.66;;;11.84
37452;BMP280;23314;51.114;6.900;2022-12-24T03:13:32;100599.19;;;11.91
37452;BMP280;23314;51.114;6.900;2022-12-24T03:15:58;100599.06;;;11.98
37452;BMP280;23314;51.114;6.900;2022-12-24T03:18:25;100596.97;;;12.06
37452;BMP280;23314;51.114;6.900;2022-12-24T03:23:30;100598.59;;;12.20
37452;BMP280;23314;51.114;6.900;2022-12-24T03:25:59;100602.75;;;12.21
37452;BMP280;23314;51.114;6.900;2022-12-24T03:28:26;100598.84;;;12.26
37452;BMP280;23314;51.114;6.900;2022-12-24T03:30:52;100603.34;;;12.29
37452;BMP280;23314;51.114;6.900;2022-12-24T03:33:17;100609.41;;;12.33
37452;BMP280;23314;51.114;6.900;2022-12-24T03:35:43;100607.78;;;12.35
37452;BMP280;23314;51.114;6.900;2022-12-24T03:38:08;100615.34;;;12.41
37452;BMP280;23314;51.114;6.900;2022-12-24T03:40:34;100608.78;;;12.42
37452;BMP280;23314;51.114;6.900;2022-12-24T03:42:59;100603.56;;;12.38
37452;BMP280;23314;51.114;6.900;2022-12-24T03:45:25;100613.97;;;12.32
37452;BMP280;23314;51.114;6.900;2022-12-24T03:47:50;100612.97;;;12.26
37452;BMP280;23314;51.114;6.900;2022-12-24T03:50:15;100603.50;;;12.21
37452;BMP280;23314;51.114;6.900;2022-12-24T03:52:40;100607.84;;;12.15
37452;BMP280;23314;51.114;6.900;2022-12-24T03:55:06;100629.00;;;12.10
37452;BMP280;23314;51.114;6.900;2022-12-24T03:57:32;100626.47;;;12.02
37452;BMP280;23314;51.114;6.900;2022-12-24T03:59:57;100626.06;;;12.04
37452;BMP280;23314;51.114;6.900;2022-12-24T04:02:22;100640.84;;;12.09
37452;BMP280;23314;51.114;6.900;2022-12-24T04:04:47;100639.28;;;12.11
37452;BMP280;23314;51.114;6.900;2022-12-24T04:07:13;100630.41;;;12.14
37452;BMP280;23314;51.114;6.900;2022-12-24T04:09:38;100647.22;;;12.15
37452;BMP280;23314;51.114;6.900;2022-12-24T04:12:05;100641.44;;;12.16
37452;BMP280;23314;51.114;6.900;2022-12-24T04:14:31;100646.78;;;12.16
37452;BMP280;23314;51.114;6.900;2022-12-24T04:16:56;100648.31;;;12.17
37452;BMP280;23314;51.114;6.900;2022-12-24T04:19:21;100644.88;;;12.17
37452;BMP280;23314;51.114;6.900;2022-12-24T04:21:46;100647.56;;;12.17
37452;BMP280;23314;51.114;6.900;2022-12-24T04:24:12;100655.59;;;12.17
37452;BMP280;23314;51.114;6.900;2022-12-24T04:26:37;100663.19;;;12.18
37452;BMP280;23314;51.114;6.900;2022-12-24T04:29:02;100654.75;;;12.20
37452;BMP280;23314;51.114;6.900;2022-12-24T04:31:28;100650.59;;;12.19
37452;BMP280;23314;51.114;6.900;2022-12-24T04:33:53;100665.84;;;12.18
37452;BMP280;23314;51.114;6.900;2022-12-24T04:36:19;100646.78;;;12.16
37452;BMP280;23314;51.114;6.900;2022-12-24T04:38:46;100670.47;;;12.18
37452;BMP280;23314;51.114;6.900;2022-12-24T04:41:17;100667.78;;;12.18
37452;BMP280;23314;51.114;6.900;2022-12-24T04:43:43;100671.63;;;12.17
37452;BMP280;23314;51.114;6.900;2022-12-24T04:46:11;100676.22;;;12.16
37452;BMP280;23314;51.114;6.900;2022-12-24T04:48:39;100675.53;;;12.12
37452;BMP280;23314;51.114;6.900;2022-12-24T04:51:06;100676.28;;;12.13
37452;BMP280;23314;51.114;6.900;2022-12-24T04:53:32;100677.78;;;12.14
37452;BMP280;23314;51.114;6.900;2022-12-24T04:55:58;100678.53;;;12.14
37452;BMP280;23314;51.114;6.900;2022-12-24T04:58:24;100687.69;;;12.17
37452;BMP280;23314;51.114;6.900;2022-12-24T05:00:49;100677.72;;;12.17
37452;BMP280;23314;51.114;6.900;2022-12-24T05:03:15;100681.97;;;12.15
37452;BMP280;23314;51.114;6.900;2022-12-24T05:05:40;100681.72;;;12.09
37452;BMP280;23314;51.114;6.900;2022-12-24T05:08:05;100682.09;;;12.07
37452;BMP280;23314;51.114;6.900;2022-12-24T05:10:31;100685.63;;;12.04
37452;BMP280;23314;51.114;6.900;2022-12-24T05:12:56;100686.47;;;12.01
37452;BMP280;23314;51.114;6.900;2022-12-24T05:15:22;100697.53;;;12.00
37452;BMP280;23314;51.114;6.900;2022-12-24T05:17:47;100704.00;;;12.02
37452;BMP280;23314;51.114;6.900;2022-12-24T05:20:12;100699.41;;;12.03
37452;BMP280;23314;51.114;6.900;2022-12-24T05:22:38;100702.50;;;12.01
37452;BMP280;23314;51.114;6.900;2022-12-24T05:25:22;100696.38;;;12.01
37452;BMP280;23314;51.114;6.900;2022-12-24T05:28:06;100707.44;;;12.03
37452;BMP280;23314;51.114;6.900;2022-12-24T05:30:31;100707.00;;;12.04
37452;BMP280;23314;51.114;6.900;2022-12-24T05:32:56;100715.03;;;12.04
37452;BMP280;23314;51.114;6.900;2022-12-24T05:35:22;100717.66;;;12.08
37452;BMP280;23314;51.114;6.900;2022-12-24T05:37:47;100720.25;;;12.12
37452;BMP280;23314;51.114;6.900;2022-12-24T05:40:12;100715.66;;;12.12
37452;BMP280;23314;51.114;6.900;2022-12-24T05:42:38;100716.72;;;12.15
37452;BMP280;23314;51.114;6.900;2022-12-24T05:45:03;100714.41;;;12.17
37452;BMP280;23314;51.114;6.900;2022-12-24T05:47:29;100709.47;;;12.15
37452;BMP280;23314;51.114;6.900;2022-12-24T05:49:54;100711.03;;;12.13
37452;BMP280;23314;51.114;6.900;2022-12-24T05:52:20;100716.06;;;12.11
37452;BMP280;23314;51.114;6.900;2022-12-24T05:54:45;100711.47;;;12.11
37452;BMP280;23314;51.114;6.900;2022-12-24T05:57:10;100714.91;;;12.12
37452;BMP280;23314;51.114;6.900;2022-12-24T05:59:36;100720.56;;;12.14
37452;BMP280;23314;51.114;6.900;2022-12-24T06:02:01;100724.00;;;12.14
37452;BMP280;23314;51.114;6.900;2022-12-24T06:04:26;100725.50;;;12.15
37452;BMP280;23314;51.114;6.900;2022-12-24T06:06:52;100732.38;;;12.16
37452;BMP280;23314;51.114;6.900;2022-12-24T06:09:17;100735.81;;;12.17
37452;BMP280;23314;51.114;6.900;2022-12-24T06:11:42;100741.16;;;12.17
37452;BMP280;23314;51.114;6.900;2022-12-24T06:14:08;100734.66;;;12.18
37452;BMP280;23314;51.114;6.900;2022-12-24T06:16:33;100746.84;;;12.19
37452;BMP280;23314;51.114;6.900;2022-12-24T06:18:58;100748.34;;;12.20
37452;BMP280;23314;51.114;6.900;2022-12-24T06:21:24;100752.19;;;12.19
37452;BMP280;23314;51.114;6.900;2022-12-24T06:23:50;100751.75;;;12.20
37452;BMP280;23314;51.114;6.900;2022-12-24T06:26:18;100758.22;;;12.23
37452;BMP280;23314;51.114;6.900;2022-12-24T06:28:46;100762.41;;;12.24
37452;BMP280;23314;51.114;6.900;2022-12-24T06:31:14;100761.25;;;12.25
37452;BMP280;23314;51.114;6.900;2022-12-24T06:33:40;100753.63;;;12.23
37452;BMP280;23314;51.114;6.900;2022-12-24T06:36:12;100761.66;;;12.23
37452;BMP280;23314;51.114;6.900;2022-12-24T06:38:38;100759.75;;;12.24
37452;BMP280;23314;51.114;6.900;2022-12-24T06:41:05;100752.53;;;12.21
37452;BMP280;23314;51.114;6.900;2022-12-24T06:43:31;100755.75;;;12.12
37452;BMP280;23314;51.114;6.900;2022-12-24T06:45:59;100766.16;;;12.06
37452;BMP280;23314;51.114;6.900;2022-12-24T06:48:24;100763.63;;;11.99
37452;BMP280;23314;51.114;6.900;2022-12-24T06:50:50;100778.66;;;11.93
37452;BMP280;23314;51.114;6.900;2022-12-24T06:53:15;100772.53;;;11.93
37452;BMP280;23314;51.114;6.900;2022-12-24T06:55:40;100782.47;;;11.92
37452;BMP280;23314;51.114;6.900;2022-12-24T06:58:06;100790.84;;;11.94
37452;BMP280;23314;51.114;6.900;2022-12-24T07:00:31;100802.66;;;11.97
37452;BMP280;23314;51.114;6.900;2022-12-24T07:02:57;100801.75;;;12.03
37452;BMP280;23314;51.114;6.900;2022-12-24T07:05:22;100803.19;;;12.08
37452;BMP280;23314;51.114;6.900;2022-12-24T07:07:47;100796.59;;;12.13
37452;BMP280;23314;51.114;6.900;2022-12-24T07:10:14;100791.19;;;12.16
37452;BMP280;23314;51.114;6.900;2022-12-24T07:12:40;100792.31;;;12.19
37452;BMP280;23314;51.114;6.900;2022-12-24T07:15:06;100789.97;;;12.21
37452;BMP280;23314;51.114;6.900;2022-12-24T07:17:31;100795.72;;;12.19
37452;BMP280;23314;51.114;6.900;2022-12-24T07:19:57;100790.03;;;12.17
37452;BMP280;23314;51.114;6.900;2022-12-24T07:22:22;100798.38;;;12.19
37452;BMP280;23314;51.114;6.900;2022-12-24T07:24:47;100801.88;;;12.16
37452;BMP280;23314;51.114;6.900;2022-12-24T07:27:13;100804.97;;;12.15
37452;BMP280;23314;51.114;6.900;2022-12-24T07:29:38;100810.81;;;12.10
37452;BMP280;23314;51.114;6.900;2022-12-24T07:32:04;100815.88;;;12.04
37452;BMP280;23314;51.114;6.900;2022-12-24T07:34:30;100810.66;;;11.97
37452;BMP280;23314;51.114;6.900;2022-12-24T07:36:55;100822.22;;;11.90
37452;BMP280;23314;51.114;6.900;2022-12-24T07:39:20;100823.09;;;11.83
37452;BMP280;23314;51.114;6.900;2022-12-24T07:41:45;100822.47;;;11.76
37452;BMP280;23314;51.114;6.900;2022-12-24T07:44:14;100823.31;;;11.69
37452;BMP280;23314;51.114;6.900;2022-12-24T07:46:39;100831.47;;;11.62
37452;BMP280;23314;51.114;6.900;2022-12-24T07:49:05;100838.09;;;11.53
37452;BMP280;23314;51.114;6.900;2022-12-24T07:51:30;100840.06;;;11.49
37452;BMP280;23314;51.114;6.900;2022-12-24T07:53:55;100850.78;;;11.46
37452;BMP280;23314;51.114;6.900;2022-12-24T07:56:21;100848.88;;;11.46
37452;BMP280;23314;51.114;6.900;2022-12-24T07:58:46;100848.13;;;11.46
37452;BMP280;23314;51.114;6.900;2022-12-24T08:01:11;100850.47;;;11.44
37452;BMP280;23314;51.114;6.900;2022-12-24T08:03:37;100854.97;;;11.47
37452;BMP280;23314;51.114;6.900;2022-12-24T08:06:04;100854.53;;;11.52
37452;BMP280;23314;51.114;6.900;2022-12-24T08:08:29;100858.59;;;11.60
37452;BMP280;23314;51.114;6.900;2022-12-24T08:10:59;100851.66;;;11.66
37452;BMP280;23314;51.114;6.900;2022-12-24T08:13:25;100861.16;;;11.67
37452;BMP280;23314;51.114;6.900;2022-12-24T08:15:50;100860.06;;;11.65
37452;BMP280;23314;51.114;6.900;2022-12-24T08:18:15;100867.31;;;11.64
37452;BMP280;23314;51.114;6.900;2022-12-24T08:20:41;100873.06;;;11.63
37452;BMP280;23314;51.114;6.900;2022-12-24T08:23:06;100870.41;;;11.63
37452;BMP280;23314;51.114;6.900;2022-12-24T08:25:32;100882.59;;;11.64
37452;BMP280;23314;51.114;6.900;2022-12-24T08:27:58;100885.94;;;11.68
37452;BMP280;23314;51.114;6.900;2022-12-24T08:30:23;100884.34;;;11.74
37452;BMP280;23314;51.114;6.900;2022-12-24T08:32:48;100879.28;;;11.80
37452;BMP280;23314;51.114;6.900;2022-12-24T08:35:14;100879.97;;;11.84
37452;BMP280;23314;51.114;6.900;2022-12-24T08:37:39;100881.84;;;11.87
37452;BMP280;23314;51.114;6.900;2022-12-24T08:40:05;100881.78;;;11.90
37452;BMP280;23314;51.114;6.900;2022-12-24T08:42:30;100888.25;;;11.93
37452;BMP280;23314;51.114;6.900;2022-12-24T08:44:56;100888.59;;;11.95
37452;BMP280;23314;51.114;6.900;2022-12-24T08:47:21;100893.88;;;11.99
37452;BMP280;23314;51.114;6.900;2022-12-24T08:49:46;100892.31;;;12.01
37452;BMP280;23314;51.114;6.900;2022-12-24T08:52:12;100890.81;;;12.00
37452;BMP280;23314;51.114;6.900;2022-12-24T08:54:37;100893.47;;;12.00
37452;BMP280;23314;51.114;6.900;2022-12-24T08:57:02;100899.56;;;12.01
37452;BMP280;23314;51.114;6.900;2022-12-24T08:59:27;100905.72;;;11.98
37452;BMP280;23314;51.114;6.900;2022-12-24T09:01:53;100901.84;;;12.02
37452;BMP280;23314;51.114;6.900;2022-12-24T09:04:18;100904.44;;;12.06
37452;BMP280;23314;51.114;6.900;2022-12-24T09:06:44;100915.91;;;12.06
37452;BMP280;23314;51.114;6.900;2022-12-24T09:09:09;100913.22;;;12.06
37452;BMP280;23314;51.114;6.900;2022-12-24T09:11:35;100925.41;;;12.11
37452;BMP280;23314;51.114;6.900;2022-12-24T09:14:00;100919.97;;;12.15
37452;BMP280;23314;51.114;6.900;2022-12-24T09:16:26;100925.59;;;12.20
37452;BMP280;23314;51.114;6.900;2022-12-24T09:18:51;100931.31;;;12.22
37452;BMP280;23314;51.114;6.900;2022-12-24T09:21:17;100938.59;;;12.22
37452;BMP280;23314;51.114;6.900;2022-12-24T09:23:46;100940.91;;;12.20
37452;BMP280;23314;51.114;6.900;2022-12-24T09:26:14;100944.75;;;12.19
37452;BMP280;23314;51.114;6.900;2022-12-24T09:28:40;100946.66;;;12.18
37452;BMP280;23314;51.114;6.900;2022-12-24T09:31:05;100950.81;;;12.19
37452;BMP280;23314;51.114;6.900;2022-12-24T09:33:34;100964.53;;;12.25
37452;BMP280;23314;51.114;6.900;2022-12-24T09:36:01;100966.31;;;12.32
37452;BMP280;23314;51.114;6.900;2022-12-24T09:38:27;100968.91;;;12.35
37452;BMP280;23314;51.114;6.900;2022-12-24T09:40:53;100976.88;;;12.39
37452;BMP280;23314;51.114;6.900;2022-12-24T09:43:28;100990.56;;;12.45
37452;BMP280;23314;51.114;6.900;2022-12-24T09:46:16;100998.13;;;12.50
37452;BMP280;23314;51.114;6.900;2022-12-24T09:48:47;101001.47;;;12.54
37452;BMP280;23314;51.114;6.900;2022-12-24T09:51:28;101000.25;;;12.59
37452;BMP280;23314;51.114;6.900;2022-12-24T09:54:19;101003.94;;;12.65
37452;BMP280;23314;51.114;6.900;2022-12-24T09:56:47;101001.16;;;12.72
37452;BMP280;23314;51.114;6.900;2022-12-24T09:59:19;100991.06;;;12.80
37452;BMP280;23314;51.114;6.900;2022-12-24T10:01:45;100999.06;;;12.83
37452;BMP280;23314;51.114;6.900;2022-12-24T10:04:19;100998.97;;;12.87
37452;BMP280;23314;51.114;6.900;2022-12-24T10:07:07;101009.22;;;12.92
37452;BMP280;23314;51.114;6.900;2022-12-24T10:15:43;101012.44;;;13.03
37452;BMP280;23314;51.114;6.900;2022-12-24T10:18:17;101003.66;;;13.03
37452;BMP280;23314;51.114;6.900;2022-12-24T10:21:14;101016.59;;;13.04
37452;BMP280;23314;51.114;6.900;2022-12-24T10:26:29;101022.94;;;13.14
37452;BMP280;23314;51.114;6.900;2022-12-24T10:29:17;101021.69;;;13.19
37452;BMP280;23314;51.114;6.900;2022-12-24T10:32:33;101015.44;;;13.26
37452;BMP280;23314;51.114;6.900;2022-12-24T10:34:51;101021.16;;;13.28
37452;BMP280;23314;51.114;6.900;2022-12-24T10:37:22;101027.59;;;13.30
37452;BMP280;23314;51.114;6.900;2022-12-24T10:39:48;101011.84;;;13.32
37452;BMP280;23314;51.114;6.900;2022-12-24T10:42:14;101019.50;;;13.34
37452;BMP280;23314;51.114;6.900;2022-12-24T10:44:41;101018.31;;;13.35
37452;BMP280;23314;51.114;6.900;2022-12-24T10:47:08;101021.63;;;13.43
37452;BMP280;23314;51.114;6.900;2022-12-24T10:52:39;101028.88;;;13.42
37452;BMP280;23314;51.114;6.900;2022-12-24T10:55:09;101022.38;;;13.43
37452;BMP280;23314;51.114;6.900;2022-12-24T10:57:39;101019.69;;;13.43
37452;BMP280;23314;51.114;6.900;2022-12-24T11:00:06;101017.81;;;13.40
37452;BMP280;23314;51.114;6.900;2022-12-24T11:02:36;101010.19;;;13.38
37452;BMP280;23314;51.114;6.900;2022-12-24T11:05:06;101010.13;;;13.42
37452;BMP280;23314;51.114;6.900;2022-12-24T11:07:32;101018.28;;;13.55
37452;BMP280;23314;51.114;6.900;2022-12-24T11:10:04;101016.97;;;13.63
37452;BMP280;23314;51.114;6.900;2022-12-24T11:12:36;101015.56;;;13.75
37452;BMP280;23314;51.114;6.900;2022-12-24T11:17:56;101016.56;;;13.81
37452;BMP280;23314;51.114;6.900;2022-12-24T11:20:28;101011.47;;;13.87
37452;BMP280;23314;51.114;6.900;2022-12-24T11:22:55;101016.56;;;13.98
37452;BMP280;23314;51.114;6.900;2022-12-24T11:25:26;101004.31;;;13.97
37452;BMP280;23314;51.114;6.900;2022-12-24T11:27:54;101015.53;;;13.92
37452;BMP280;23314;51.114;6.900;2022-12-24T11:30:30;101017.00;;;13.96
37452;BMP280;23314;51.114;6.900;2022-12-24T11:35:24;101021.41;;;14.19
37452;BMP280;23314;51.114;6.900;2022-12-24T11:40:33;101005.81;;;14.60
37452;BMP280;23314;51.114;6.900;2022-12-24T11:43:00;101012.41;;;14.72
37452;BMP280;23314;51.114;6.900;2022-12-24T11:45:31;101012.97;;;14.80
37452;BMP280;23314;51.114;6.900;2022-12-24T11:47:58;101011.81;;;14.81
37452;BMP280;23314;51.114;6.900;2022-12-24T11:50:32;101029.09;;;14.80
37452;BMP280;23314;51.114;6.900;2022-12-24T11:55:41;101009.28;;;14.74
37452;BMP280;23314;51.114;6.900;2022-12-24T12:04:17;101010.16;;;15.13
37452;BMP280;23314;51.114;6.900;2022-12-24T12:06:48;101010.16;;;15.26
37452;BMP280;23314;51.114;6.900;2022-12-24T12:09:27;101006.25;;;15.27
37452;BMP280;23314;51.114;6.900;2022-12-24T12:14:42;101011.75;;;15.10
37452;BMP280;23314;51.114;6.900;2022-12-24T12:20:13;101012.19;;;15.09
37452;BMP280;23314;51.114;6.900;2022-12-24T12:25:43;101021.41;;;15.08
37452;BMP280;23314;51.114;6.900;2022-12-24T12:28:34;101024.75;;;14.99
37452;BMP280;23314;51.114;6.900;2022-12-24T12:33:41;101033.00;;;14.92
37452;BMP280;23314;51.114;6.900;2022-12-24T12:36:09;101037.53;;;14.95
37452;BMP280;23314;51.114;6.900;2022-12-24T12:38:36;101042.69;;;15.02
37452;BMP280;23314;51.114;6.900;2022-12-24T12:51:52;101048.34;;;15.46
37452;BMP280;23314;51.114;6.900;2022-12-24T12:54:35;101055.78;;;15.42
37452;BMP280;23314;51.114;6.900;2022-12-24T12:57:12;101052.19;;;15.32
37452;BMP280;23314;51.114;6.900;2022-12-24T12:59:43;101056.16;;;15.28
37452;BMP280;23314;51.114;6.900;2022-12-24T13:02:35;101056.16;;;15.28
37452;BMP280;23314;51.114;6.900;2022-12-24T13:05:22;101055.19;;;15.22
37452;BMP280;23314;51.114;6.900;2022-12-24T13:10:58;101046.22;;;14.99
37452;BMP280;23314;51.114;6.900;2022-12-24T13:13:47;101058.78;;;14.89
37452;BMP280;23314;51.114;6.900;2022-12-24T13:21:48;101065.75;;;14.57
37452;BMP280;23314;51.114;6.900;2022-12-24T13:24:17;101062.41;;;14.53
37452;BMP280;23314;51.114;6.900;2022-12-24T13:29:39;101065.16;;;14.33
37452;BMP280;23314;51.114;6.900;2022-12-24T13:35:32;101058.06;;;14.26
37452;BMP280;23314;51.114;6.900;2022-12-24T13:37:33;101064.25;;;14.23
37452;BMP280;23314;51.114;6.900;2022-12-24T13:45:42;101074.22;;;14.23
37452;BMP280;23314;51.114;6.900;2022-12-24T13:50:54;101079.91;;;14.41
37452;BMP280;23314;51.114;6.900;2022-12-24T13:53:27;101090.41;;;14.52
37452;BMP280;23314;51.114;6.900;2022-12-24T13:55:56;101079.56;;;14.56
37452;BMP280;23314;51.114;6.900;2022-12-24T13:58:23;101094.63;;;14.53
37452;BMP280;23314;51.114;6.900;2022-12-24T14:00:56;101076.25;;;14.51
37452;BMP280;23314;51.114;6.900;2022-12-24T14:05:58;101088.81;;;14.38
37452;BMP280;23314;51.114;6.900;2022-12-24T14:11:15;101105.78;;;14.18
37452;BMP280;23314;51.114;6.900;2022-12-24T14:16:18;101098.47;;;14.02
37452;BMP280;23314;51.114;6.900;2022-12-24T14:18:49;101107.19;;;14.07
37452;BMP280;23314;51.114;6.900;2022-12-24T14:21:22;101093.03;;;14.23
37452;BMP280;23314;51.114;6.900;2022-12-24T14:23:57;101098.28;;;14.43
37452;BMP280;23314;51.114;6.900;2022-12-24T14:26:29;101094.69;;;14.49
37452;BMP280;23314;51.114;6.900;2022-12-24T14:28:58;101100.16;;;14.46
37452;BMP280;23314;51.114;6.900;2022-12-24T14:31:24;101102.25;;;14.38
37452;BMP280;23314;51.114;6.900;2022-12-24T14:33:49;101099.97;;;14.20
37452;BMP280;23314;51.114;6.900;2022-12-24T14:36:21;101101.91;;;14.03
37452;BMP280;23314;51.114;6.900;2022-12-24T14:38:47;101104.19;;;13.84
37452;BMP280;23314;51.114;6.900;2022-12-24T14:44:05;101118.72;;;13.50
37452;BMP280;23314;51.114;6.900;2022-12-24T14:46:43;101118.97;;;13.36
37452;BMP280;23314;51.114;6.900;2022-12-24T14:56:45;101138.31;;;12.80
37452;BMP280;23314;51.114;6.900;2022-12-24T14:59:19;101139.28;;;12.66
37452;BMP280;23314;51.114;6.900;2022-12-24T15:01:45;101147.91;;;12.53
37452;BMP280;23314;51.114;6.900;2022-12-24T15:06:43;101137.94;;;12.27
37452;BMP280;23314;51.114;6.900;2022-12-24T15:09:23;101132.81;;;12.12
37452;BMP280;23314;51.114;6.900;2022-12-24T15:11:53;101139.84;;;11.99
37452;BMP280;23314;51.114;6.900;2022-12-24T15:14:20;101143.44;;;11.85
37452;BMP280;23314;51.114;6.900;2022-12-24T15:16:53;101148.19;;;11.73
37452;BMP280;23314;51.114;6.900;2022-12-24T15:19:26;101158.63;;;11.61
37452;BMP280;23314;51.114;6.900;2022-12-24T15:21:53;101172.47;;;11.48
37452;BMP280;23314;51.114;6.900;2022-12-24T15:24:30;101169.16;;;11.37
37452;BMP280;23314;51.114;6.900;2022-12-24T15:27:00;101180.69;;;11.27
37452;BMP280;23314;51.114;6.900;2022-12-24T15:29:32;101175.41;;;11.19
37452;BMP280;23314;51.114;6.900;2022-12-24T15:32:03;101175.47;;;11.12
37452;BMP280;23314;51.114;6.900;2022-12-24T15:34:40;101177.44;;;11.04
37452;BMP280;23314;51.114;6.900;2022-12-24T15:39:35;101188.59;;;10.92
37452;BMP280;23314;51.114;6.900;2022-12-24T15:42:01;101198.16;;;10.86
37452;BMP280;23314;51.114;6.900;2022-12-24T15:44:55;101194.78;;;10.78
37452;BMP280;23314;51.114;6.900;2022-12-24T15:47:26;101191.75;;;10.72
37452;BMP280;23314;51.114;6.900;2022-12-24T15:49:52;101203.63;;;10.64
37452;BMP280;23314;51.114;6.900;2022-12-24T15:52:20;101194.13;;;10.59
37452;BMP280;23314;51.114;6.900;2022-12-24T15:54:49;101205.19;;;10.54
37452;BMP280;23314;51.114;6.900;2022-12-24T15:59:55;101211.34;;;10.40
37452;BMP280;23314;51.114;6.900;2022-12-24T16:04:49;101212.56;;;10.25
37452;BMP280;23314;51.114;6.900;2022-12-24T16:07:25;101212.22;;;10.19